Danville, Kentucky
Current Conditions -  °F | °C
As of 4:15 PM on Saturday 22 Nov 2014 (Local Time) from KDVK Reporting Station
Clear Clear  
Wind Chill: 59°   Ceiling: Unl
Heat Index: 59°   Visibility: 10mi
Dew Point: 32°   Wind: 12mph
Humidity: 36%   Direction: 220°SW
Pressure: 30.19"   Gusts: 20mph
Location:  37.65°N, 84.77°W
Report Text: KDVK 222115Z AUTO 22010G17KT 10SM CLR 15/00 A3019 RMK AO2
Loading
Personal Weather Stations






























Interactive Weather Map New forecast layout! Learn more

10-Day Weather Forecast

Advertisements
Track Severe Weather on mobile